• Join FlightAware (Why Join?)
  • Login
  • US Flag 
 
10:05AM EST


 

Airport Tracker/Info


-or-


 

Live Flight TrackerFlight Track Log ✈ UAL4407 ✈ 20-Sep-2013 ✈ KEWR - KOMA

Flight Track Log - Related Links

Times and Time Zones

All times are in EDT time to prevent confusion due to time zone crossing. See the UAL4407 flight status page for this flight to view local times or setup timezone preferences in your user account.

Time Position Orientation Groundspeed Altitude Reporting Facility
EDT Latitude Longitude Course Direction KTS MPH feet Rate Location/Type
08:29AM 40.6500 -74.1833 270° West 181 208 1,700  Level New York TRACON
08:30AM 40.6333 -74.2500 252° West 252 290 3,200 2,040 Climbing New York TRACON
08:32AM 40.6667 -74.3333 298° West 267 307 6,100 2,520 Climbing New York TRACON
08:33AM 40.7579 -74.7074 294° West  Level Estimated
08:33AM 40.7000 -74.4333 294° West 279 321 8,600  Level New York TRACON
08:34AM 40.7739 -74.8422 217° Southwest  Level Estimated
08:34AM 40.7167 -74.5333 282° West 291 335 10,500  Level New York TRACON
08:34AM 40.7550 -74.6256 299° West 325 374 11,500 1,080 Climbing New York Center
08:35AM 40.7897 -74.9772 270° West  Level Estimated
08:35AM 40.7867 -74.7342 291° West 347 399 12,600  Level New York Center
08:36AM 40.8300 -74.8683 293° West 363 418 13,900 1,260 Climbing New York Center
08:37AM 40.8692 -74.9997 292° West 376 433 15,200 1,260 Climbing New York Center
08:38AM 40.9083 -75.1283 292° West 383 441 16,500 1,320 Climbing New York Center
08:39AM 40.8994 -75.2569 265° West 371 427 17,900 1,200 Climbing New York Center
08:40AM 40.8711 -75.3922 255° West 381 438 19,000 1,200 Climbing New York Center
08:41AM 40.8367 -75.5269 251° West 386 444 20,300 1,260 Climbing New York Center
08:42AM 40.8039 -75.6644 253° West 391 450 21,600 1,260 Climbing New York Center
08:43AM 40.7733 -75.7994 253° West 391 450 22,900 1,200 Climbing New York Center
08:44AM 40.7406 -75.9339 252° West 397 457 24,000 1,140 Climbing New York Center
08:45AM 40.7050 -76.0736 251° West 397 457 25,200 1,200 Climbing New York Center
08:46AM 40.6717 -76.2133 253° West 397 457 26,400 1,140 Climbing New York Center
08:47AM 40.6817 -76.3536 275° West 386 444 27,500 1,080 Climbing New York Center
08:48AM 40.7019 -76.4978 281° West 391 450 28,600 960 Climbing New York Center
08:49AM 40.7242 -76.6419 282° West 396 456 29,500 900 Climbing New York Center
08:50AM 40.7461 -76.7836 282° West 396 456 30,500 960 Climbing New York Center
08:51AM 40.7656 -76.9333 280° West 401 461 31,500 900 Climbing New York Center
08:52AM 40.7892 -77.0781 282° West 401 461 32,400 900 Climbing New York Center
08:53AM 40.8083 -77.2250 280° West 406 467 33,400 960 Climbing New York Center
08:54AM 40.8331 -77.3811 282° West 406 467 34,400 780 Climbing New York Center
08:56AM 40.8672 -77.6342 280° West 400 460 35,700 540 Climbing Cleveland Center
08:57AM 40.8906 -77.7997 281° West 405 466 36,000 120 Climbing Cleveland Center
08:58AM 40.9119 -77.9583 280° West 415 478 36,000  Level Cleveland Center
08:59AM 40.9317 -78.1128 280° West 428 493 36,000  Level Cleveland Center
09:01AM 40.9525 -78.2728 280° West 419 482 36,000  Level Cleveland Center
09:02AM 40.9689 -78.4164 279° West 403 464 36,000  Level Cleveland Center
09:03AM 40.9894 -78.5661 280° West 415 478 36,000  Level Cleveland Center
09:04AM 41.0067 -78.7106 279° West 406 467 36,000  Level Cleveland Center
09:05AM 41.0225 -78.8556 278° West 402 463 36,000  Level Cleveland Center
09:06AM 41.0364 -78.9983 277° West 397 457 36,000  Level Cleveland Center
09:07AM 41.0558 -79.1725 278° West 399 459 36,000  Level Cleveland Center
09:08AM 41.0733 -79.3233 279° West 410 472 36,000  Level Cleveland Center
09:09AM 41.0669 -79.4753 267° West 424 488 36,000  Level Cleveland Center
09:10AM 41.0500 -79.6222 261° West 410 472 36,000  Level Cleveland Center
09:11AM 41.0328 -79.7653 261° West 400 460 36,000  Level Cleveland Center
09:12AM 41.0114 -79.9333 260° West 391 450 36,000  Level Cleveland Center
09:13AM 40.9953 -80.0714 261° West 385 443 36,000  Level Cleveland Center
09:14AM 40.9786 -80.2086 261° West 382 440 36,000  Level Cleveland Center
09:15AM 40.9617 -80.3531 261° West 394 453 36,000  Level Cleveland Center
09:16AM 40.9442 -80.5036 261° West 409 471 36,000  Level Cleveland Center
09:17AM 40.9242 -80.6792 261° West 408 470 36,000  Level Cleveland Center
09:18AM 40.9094 -80.8244 262° West 404 465 36,000  Level Cleveland Center
09:19AM 40.9003 -80.9689 265° West 400 460 36,000  Level Cleveland Center
09:20AM 40.9158 -81.1233 278° West 396 456 36,000  Level Cleveland Center
09:21AM 40.9297 -81.2742 277° West 406 467 36,000  Level Cleveland Center
09:22AM 40.9456 -81.4283 278° West 414 476 36,000  Level Cleveland Center
09:23AM 40.9603 -81.5817 277° West 415 478 36,000  Level Cleveland Center
09:24AM 40.9761 -81.7361 278° West 417 480 36,000  Level Cleveland Center
09:25AM 40.9903 -81.8858 277° West 407 468 36,000  Level Cleveland Center
09:26AM 41.0050 -82.0292 278° West 392 451 36,000  Level Cleveland Center
09:27AM 41.0181 -82.1703 277° West 382 440 36,000  Level Cleveland Center
09:28AM 41.0314 -82.3131 277° West 385 443 36,000  Level Cleveland Center
09:29AM 41.0469 -82.4808 277° West 390 449 36,000  Level Cleveland Center
09:30AM 41.0603 -82.6256 277° West 391 450 36,000  Level Cleveland Center
09:31AM 41.0725 -82.7658 277° West 384 442 36,000  Level Cleveland Center
09:33AM 41.0850 -82.8986 277° West 366 421 36,000  Level Cleveland Center
09:34AM 41.0961 -83.0289 276° West 355 409 36,000  Level Cleveland Center
09:35AM 41.1081 -83.1672 277° West 352 405 36,000  Level Cleveland Center
09:36AM 41.1186 -83.2964 276° West 352 405 36,000  Level Cleveland Center
09:37AM 41.1306 -83.4242 277° West 351 404 36,000  Level Cleveland Center
09:38AM 41.1403 -83.5539 276° West 352 405 36,000  Level Cleveland Center
09:39AM 41.1514 -83.6808 277° West 349 402 36,000  Level Cleveland Center
09:40AM 41.1603 -83.8078 275° West 346 398 36,000  Level Cleveland Center
09:41AM 41.1758 -83.9792 277° West 346 398 36,000  Level Chicago Center
09:42AM 41.1850 -84.1042 276° West 343 395 36,000  Level Chicago Center
09:43AM 41.1947 -84.2292 276° West 341 392 36,000  Level Chicago Center
09:44AM 41.2044 -84.3536 276° West 340 391 36,000  Level Chicago Center
09:45AM 41.2131 -84.4789 275° West 342 394 36,000  Level Chicago Center
09:46AM 41.2225 -84.6028 276° West 338 389 36,000  Level Chicago Center
09:47AM 41.2333 -84.7519 276° West 338 389 36,000  Level Chicago Center
09:48AM 41.2428 -84.8775 276° West 340 391 36,000  Level Chicago Center
09:49AM 41.2500 -85.0006 275° West 336 387 36,000  Level Chicago Center
09:50AM 41.2586 -85.1231 275° West 333 383 36,000  Level Chicago Center
09:51AM 41.2667 -85.2450 275° West 331 381 36,000  Level Chicago Center
09:52AM 41.2753 -85.3653 275° West 328 377 36,000  Level Chicago Center
09:53AM 41.2839 -85.5122 275° West 329 379 36,000  Level Chicago Center
09:54AM 41.2922 -85.6358 275° West 333 383 36,000  Level Chicago Center
09:55AM 41.2986 -85.7594 274° West 333 383 36,000  Level Chicago Center
09:56AM 41.3072 -85.8819 275° West 333 383 36,000  Level Chicago Center
09:58AM 41.3147 -86.0008 275° West 325 374 36,000  Level Chicago Center
09:59AM 41.3217 -86.1175 275° West 318 366 36,000  Level Chicago Center
10:00AM 41.3286 -86.2381 274° West 325 374 36,000  Level Chicago Center
10:01AM 41.3378 -86.3850 275° West 330 380 36,000  Level Chicago Center
10:02AM 41.3450 -86.5061 275° West 328 377 36,000 -300 Level Chicago Center
10:03AM 41.3511 -86.6292 274° West 333 383 35,400 -2,220 Descending Chicago Center
10:04AM 41.3594 -86.7769 274° West 356 410 31,500 -2,640 Descending Chicago Center
10:05AM 41.3675 -86.9158 274° West 375 432 30,000 -900 Descending Chicago Center
10:06AM 41.3736 -87.0378 274° West 334 384 29,700 -960 Descending Chicago Center
10:07AM 41.3800 -87.1603 274° West 331 381 28,100 -840 Descending Chicago Center
10:08AM 41.3856 -87.2772 274° West 319 367 28,000 -60 Descending Chicago Center
10:09AM 41.3925 -87.4128 274° West 308 354 28,000  Level Chicago Center
10:10AM 41.3986 -87.5272 274° West 310 357 28,000  Level Chicago Center
10:11AM 41.4036 -87.6414 273° West 313 360 28,000  Level Chicago Center
10:12AM 41.4078 -87.7469 273° West 317 365 28,000  Level Chicago Center
10:13AM 41.4142 -87.8756 274° West 318 366 28,000  Level Chicago Center
10:14AM 41.4203 -88.0097 274° West 323 372 28,000  Level Chicago Center
10:15AM 41.4272 -88.1300 274° West 326 375 28,000  Level Chicago Center
10:16AM 41.4300 -88.2447 272° West 323 372 28,000  Level Chicago Center
10:17AM 41.4353 -88.3886 273° West 325 374 28,000  Level Chicago Center
10:18AM 41.4403 -88.5056 273° West 321 369 28,000  Level Chicago Center
10:19AM 41.4453 -88.6211 273° West 315 362 28,000  Level Chicago Center
10:20AM 41.4492 -88.7372 273° West 314 361 28,000  Level Chicago Center
10:21AM 41.4542 -88.8508 273° West 310 357 28,000  Level Chicago Center
10:22AM 41.4583 -88.9875 272° West 308 354 28,000  Level Chicago Center
10:23AM 41.4622 -89.1017 273° West 310 357 28,000  Level Chicago Center
10:24AM 41.4672 -89.2222 273° West 309 356 28,000  Level Chicago Center
10:25AM 41.4706 -89.3356 272° West 307 353 28,000  Level Chicago Center
10:26AM 41.4711 -89.4497 270° West 307 353 28,000  Level Chicago Center
10:28AM 41.4728 -89.5600 271° West 301 346 28,000  Level Chicago Center
10:29AM 41.4733 -89.6722 270° West 302 348 28,000  Level Chicago Center
10:30AM 41.4747 -89.7856 271° West 305 351 28,000  Level Chicago Center
10:31AM 41.4756 -89.9272 270° West 319 367 28,000  Level Chicago Center
10:32AM 41.4761 -90.0367 270° West 298 343 28,000  Level Chicago Center
10:33AM 41.4775 -90.1375 271° West 277 319 28,000  Level Chicago Center
10:34AM 41.4767 -90.2394 269° West 275 316 28,000  Level Chicago Center
10:35AM 41.4781 -90.3483 271° West 291 335 28,000  Level Chicago Center
10:36AM 41.4781 -90.4650 270° West 311 358 28,000  Level Chicago Center
10:37AM 41.4789 -90.6056 270° West 317 365 28,000  Level Chicago Center
10:38AM 41.4767 -90.7275 269° West 326 375 28,000  Level Chicago Center
10:39AM 41.4767 -90.8417 270° West 313 360 28,000  Level Chicago Center
10:40AM 41.4761 -90.9556 270° West 310 357 28,000  Level Chicago Center
10:41AM 41.4761 -91.0675 270° West 305 351 28,000  Level Chicago Center
10:42AM 41.4744 -91.2019 269° West 302 348 28,000  Level Chicago Center
10:43AM 41.4747 -91.3128 270° West 300 345 28,000  Level Chicago Center
10:44AM 41.4747 -91.4122 270° West 298 343 28,000 -120 Level Chicago Center
10:45AM 41.4794 -91.5461 273° West 303 349 27,800 -840 Descending Chicago Center
10:46AM 41.4811 -91.6583 271° West 304 350 26,300 -900 Descending Chicago Center
10:47AM 41.4844 -91.7706 272° West 305 351 26,000 -180 Descending Chicago Center
10:48AM 41.4867 -91.8644 272° West 263 303 26,000  Level Chicago Center
10:49AM 41.4886 -91.9569 272° West 252 290 26,000  Level Chicago Center
10:50AM 41.4911 -92.0706 272° West 255 293 26,000  Level Chicago Center
10:51AM 41.4919 -92.1669 271° West 260 299 26,000  Level Chicago Center
10:52AM 41.4942 -92.2731 272° West 278 320 26,000  Level Chicago Center
10:53AM 41.4967 -92.3764 272° West 281 323 26,000  Level Chicago Center
10:54AM 41.4983 -92.4817 271° West 287 330 26,000  Level Chicago Center
10:55AM 41.5006 -92.6122 271° West 295 339 26,000  Level Chicago Center
10:57AM 41.5019 -92.7286 271° West 312 359 26,000  Level Chicago Center
10:58AM 41.5028 -92.8372 271° West 321 369 26,000  Level Chicago Center
10:59AM 41.5061 -93.0097 272° West 331 381 26,000  Level Minneapolis Center
11:00AM 41.5067 -93.1322 270° West 334 384 26,000  Level Minneapolis Center
11:01AM 41.5086 -93.2586 271° West 340 391 26,000  Level Minneapolis Center
11:02AM 41.5092 -93.3831 270° West 340 391 26,000  Level Minneapolis Center
11:03AM 41.5114 -93.5356 271° West 345 397 26,000 -840 Level Minneapolis Center
11:04AM 41.5133 -93.6658 271° West 350 403 24,300 -1,020 Descending Minneapolis Center
11:05AM 41.5139 -93.8053 270° West 370 426 24,000 -360 Descending Minneapolis Center
11:06AM 41.5150 -93.9444 271° West 377 434 23,600 -1,200 Descending Minneapolis Center
11:07AM 41.5156 -94.0822 270° West 376 433 21,600 -2,100 Descending Minneapolis Center
11:08AM 41.5142 -94.2469 269° West 387 445 19,300 -1,920 Descending Minneapolis Center
11:09AM 41.5139 -94.3881 270° West 381 438 17,700 -1,500 Descending Minneapolis Center
11:10AM 41.5142 -94.5253 270° West 372 428 16,200 -900 Descending Minneapolis Center
11:11AM 41.5136 -94.6614 270° West 368 423 15,900 -180 Descending Minneapolis Center
11:12AM 41.5133 -94.8228 270° West 364 419 15,900 120 Level Minneapolis Center
11:13AM 41.5272 -94.8786 288° West 368 423 16,100 60 Climbing Minneapolis Center
11:13AM 41.5133 -94.9597 257° West 369 425 16,000 -480 Descending Minneapolis Center
11:14AM 41.5244 -95.0964 276° West 357 411 15,400 -720 Descending Minneapolis Center
11:14AM 41.5144 -95.0900 154° Southeast 360 414 15,300 -1,980 Descending Minneapolis Center
11:15AM 41.5081 -95.2181 266° West 308 354 13,200 -1,980 Descending Minneapolis Center
11:15AM 41.5017 -95.2042 122° Southeast 334 384 13,300 -1,980 Climbing Minneapolis Center
11:16AM 41.4644 -95.3100 245° Southwest 300 345 11,200 -2,040 Descending Minneapolis Center
11:16AM 41.4597 -95.2994 121° Southeast 321 369 11,200 -1,680 Level Minneapolis Center
11:17AM 41.3822 -95.3619 211° Southwest 301 346 9,500 -1,500 Descending Minneapolis Center
11:17AM 41.3819 -95.3522 92° East 317 365 9,700 -1,740 Climbing Minneapolis Center
11:18AM 41.3222 -95.4028 212° Southwest 287 330 7,900 -2,100 Descending Minneapolis Center
11:18AM 41.2986 -95.4097 192° South 297 342 7,500 -1,980 Descending Minneapolis Center
11:19AM 41.2556 -95.4664 225° Southwest 269 310 6,000 -1,860 Descending Minneapolis Center
11:19AM 41.2403 -95.4733 199° South 280 322 5,600 -1,020 Descending Minneapolis Center
11:20AM 41.1969 -95.5264 223° Southwest 267 307 5,000 -780 Descending Minneapolis Center
11:21AM 41.1822 -95.5336 200° South 272 313 4,800 -1,020 Descending Minneapolis Center
11:21AM 41.1500 -95.5736 223° Southwest 224 258 4,100 -780 Descending Minneapolis Center
11:22AM 41.1311 -95.5869 208° Southwest 254 292 4,000  Descending Minneapolis Center
11:22AM 41.0992 -95.6239 221° Southwest 229 264 4,100 60 Climbing Minneapolis Center
11:23AM 41.0781 -95.6847 245° Southwest 212 244 4,100 -120 Level Minneapolis Center
11:24AM 41.0922 -95.6981 325° Northwest 218 251 4,000  Descending Minneapolis Center
11:24AM 41.1225 -95.7236 328° Northwest 189 217 4,100  Climbing Minneapolis Center
11:25AM 41.1372 -95.7375 325° Northwest 201 231 4,000 -120 Descending Minneapolis Center
11:25AM 41.1675 -95.7681 323° Northwest 196 226 4,000 -300 Level Minneapolis Center
11:26AM 41.1903 -95.7883 326° Northwest 197 227 3,700 -840 Descending Minneapolis Center
11:26AM 41.2100 -95.8075 324° Northwest 192 221 3,200 -1,020 Descending Minneapolis Center
11:27AM 41.2286 -95.8256 324° Northwest 182 209 2,700 -900 Descending Minneapolis Center
11:27AM 41.2436 -95.8422 320° Northwest 128 147 2,300 -780 Descending Minneapolis Center
11:28AM 41.2592 -95.8539 331° Northwest 150 173 1,900 -840 Descending Minneapolis Center
11:28AM 41.2747 -95.8719 319° Northwest 135 155 1,500 -780 Descending Minneapolis Center
11:29AM 41.2903 -95.8839 330° Northwest 140 161 1,100 -660 Descending Minneapolis Center